sensor_id;sensor_type;location;lat;lon;timestamp;P1;durP1;ratioP1;P2;durP2;ratioP2
24407;SDS011;12542;50.924;4.516;2024-01-16T00:01:45;10.07;;;3.00;;
24407;SDS011;12542;50.924;4.516;2024-01-16T00:04:11;10.23;;;3.85;;
24407;SDS011;12542;50.924;4.516;2024-01-16T00:06:41;12.77;;;3.55;;
24407;SDS011;12542;50.924;4.516;2024-01-16T00:09:07;13.18;;;3.55;;
24407;SDS011;12542;50.924;4.516;2024-01-16T00:11:39;11.98;;;3.63;;
24407;SDS011;12542;50.924;4.516;2024-01-16T00:14:08;12.40;;;3.10;;
24407;SDS011;12542;50.924;4.516;2024-01-16T00:16:34;11.88;;;3.33;;
24407;SDS011;12542;50.924;4.516;2024-01-16T00:19:06;17.10;;;3.55;;
24407;SDS011;12542;50.924;4.516;2024-01-16T00:21:32;12.68;;;3.05;;
24407;SDS011;12542;50.924;4.516;2024-01-16T00:23:58;10.95;;;3.28;;
24407;SDS011;12542;50.924;4.516;2024-01-16T00:26:23;16.23;;;3.67;;
24407;SDS011;12542;50.924;4.516;2024-01-16T00:28:49;13.95;;;3.35;;
24407;SDS011;12542;50.924;4.516;2024-01-16T00:31:15;19.25;;;3.50;;
24407;SDS011;12542;50.924;4.516;2024-01-16T00:33:45;11.50;;;3.35;;
24407;SDS011;12542;50.924;4.516;2024-01-16T00:36:10;18.70;;;4.20;;
24407;SDS011;12542;50.924;4.516;2024-01-16T00:38:36;14.68;;;3.28;;
24407;SDS011;12542;50.924;4.516;2024-01-16T00:41:03;11.18;;;3.47;;
24407;SDS011;12542;50.924;4.516;2024-01-16T00:43:29;11.68;;;3.10;;
24407;SDS011;12542;50.924;4.516;2024-01-16T00:45:54;11.10;;;2.90;;
24407;SDS011;12542;50.924;4.516;2024-01-16T00:48:20;16.80;;;3.65;;
24407;SDS011;12542;50.924;4.516;2024-01-16T00:50:46;11.73;;;3.00;;
24407;SDS011;12542;50.924;4.516;2024-01-16T00:53:15;12.02;;;2.92;;
24407;SDS011;12542;50.924;4.516;2024-01-16T00:55:48;18.85;;;3.65;;
24407;SDS011;12542;50.924;4.516;2024-01-16T00:58:15;12.13;;;3.45;;
24407;SDS011;12542;50.924;4.516;2024-01-16T01:00:41;15.00;;;3.95;;
24407;SDS011;12542;50.924;4.516;2024-01-16T01:03:06;12.85;;;3.15;;
24407;SDS011;12542;50.924;4.516;2024-01-16T01:05:32;13.52;;;3.55;;
24407;SDS011;12542;50.924;4.516;2024-01-16T01:07:58;13.13;;;3.53;;
24407;SDS011;12542;50.924;4.516;2024-01-16T01:10:24;11.93;;;3.50;;
24407;SDS011;12542;50.924;4.516;2024-01-16T01:12:50;17.77;;;4.15;;
24407;SDS011;12542;50.924;4.516;2024-01-16T01:15:22;11.05;;;3.35;;
24407;SDS011;12542;50.924;4.516;2024-01-16T01:17:48;8.57;;;3.35;;
24407;SDS011;12542;50.924;4.516;2024-01-16T01:20:14;9.90;;;3.33;;
24407;SDS011;12542;50.924;4.516;2024-01-16T01:22:40;11.77;;;3.95;;
24407;SDS011;12542;50.924;4.516;2024-01-16T01:25:06;12.82;;;3.53;;
24407;SDS011;12542;50.924;4.516;2024-01-16T01:27:33;14.77;;;3.75;;
24407;SDS011;12542;50.924;4.516;2024-01-16T01:29:58;10.20;;;3.30;;
24407;SDS011;12542;50.924;4.516;2024-01-16T01:32:26;9.70;;;3.85;;
24407;SDS011;12542;50.924;4.516;2024-01-16T01:34:52;9.80;;;4.05;;
24407;SDS011;12542;50.924;4.516;2024-01-16T01:37:18;13.48;;;3.97;;
24407;SDS011;12542;50.924;4.516;2024-01-16T01:39:43;16.13;;;4.32;;
24407;SDS011;12542;50.924;4.516;2024-01-16T01:42:09;13.52;;;3.70;;
24407;SDS011;12542;50.924;4.516;2024-01-16T01:44:35;8.43;;;3.67;;
24407;SDS011;12542;50.924;4.516;2024-01-16T01:47:00;7.57;;;3.40;;
24407;SDS011;12542;50.924;4.516;2024-01-16T01:49:27;14.90;;;3.58;;
24407;SDS011;12542;50.924;4.516;2024-01-16T01:51:54;9.60;;;3.90;;
24407;SDS011;12542;50.924;4.516;2024-01-16T01:54:20;12.63;;;3.58;;
24407;SDS011;12542;50.924;4.516;2024-01-16T01:56:47;13.40;;;3.58;;
24407;SDS011;12542;50.924;4.516;2024-01-16T01:59:14;12.43;;;4.10;;
24407;SDS011;12542;50.924;4.516;2024-01-16T02:01:43;8.38;;;3.50;;
24407;SDS011;12542;50.924;4.516;2024-01-16T02:04:10;9.00;;;3.72;;
24407;SDS011;12542;50.924;4.516;2024-01-16T02:06:40;13.65;;;3.90;;
24407;SDS011;12542;50.924;4.516;2024-01-16T02:09:07;15.73;;;3.58;;
24407;SDS011;12542;50.924;4.516;2024-01-16T02:11:33;11.80;;;4.13;;
24407;SDS011;12542;50.924;4.516;2024-01-16T02:13:58;12.20;;;3.90;;
24407;SDS011;12542;50.924;4.516;2024-01-16T02:16:24;10.85;;;4.22;;
24407;SDS011;12542;50.924;4.516;2024-01-16T02:18:50;9.70;;;4.55;;
24407;SDS011;12542;50.924;4.516;2024-01-16T02:21:17;12.13;;;4.15;;
24407;SDS011;12542;50.924;4.516;2024-01-16T02:33:47;10.85;;;3.35;;
24407;SDS011;12542;50.924;4.516;2024-01-16T02:36:13;12.07;;;3.78;;
24407;SDS011;12542;50.924;4.516;2024-01-16T02:38:38;7.43;;;3.03;;
24407;SDS011;12542;50.924;4.516;2024-01-16T02:41:04;10.38;;;3.72;;
24407;SDS011;12542;50.924;4.516;2024-01-16T02:43:31;15.40;;;4.55;;
24407;SDS011;12542;50.924;4.516;2024-01-16T02:45:57;15.68;;;4.05;;
24407;SDS011;12542;50.924;4.516;2024-01-16T02:48:23;9.02;;;4.15;;
24407;SDS011;12542;50.924;4.516;2024-01-16T02:50:49;11.80;;;3.70;;
24407;SDS011;12542;50.924;4.516;2024-01-16T02:53:14;12.93;;;3.50;;
24407;SDS011;12542;50.924;4.516;2024-01-16T02:55:40;10.27;;;3.88;;
24407;SDS011;12542;50.924;4.516;2024-01-16T02:58:06;11.02;;;4.32;;
24407;SDS011;12542;50.924;4.516;2024-01-16T03:00:31;9.75;;;3.67;;
24407;SDS011;12542;50.924;4.516;2024-01-16T03:02:57;9.43;;;3.72;;
24407;SDS011;12542;50.924;4.516;2024-01-16T03:05:23;7.63;;;3.55;;
24407;SDS011;12542;50.924;4.516;2024-01-16T03:07:49;12.90;;;3.88;;
24407;SDS011;12542;50.924;4.516;2024-01-16T03:10:15;7.85;;;3.63;;
24407;SDS011;12542;50.924;4.516;2024-01-16T03:12:40;11.23;;;4.10;;
24407;SDS011;12542;50.924;4.516;2024-01-16T03:15:06;12.25;;;3.92;;
24407;SDS011;12542;50.924;4.516;2024-01-16T03:17:32;9.88;;;4.10;;
24407;SDS011;12542;50.924;4.516;2024-01-16T03:19:58;10.45;;;3.67;;
24407;SDS011;12542;50.924;4.516;2024-01-16T03:22:23;9.50;;;3.90;;
24407;SDS011;12542;50.924;4.516;2024-01-16T03:24:49;13.02;;;4.05;;
24407;SDS011;12542;50.924;4.516;2024-01-16T03:27:15;9.00;;;3.45;;
24407;SDS011;12542;50.924;4.516;2024-01-16T03:29:41;10.85;;;3.50;;
24407;SDS011;12542;50.924;4.516;2024-01-16T03:32:07;10.45;;;3.75;;
24407;SDS011;12542;50.924;4.516;2024-01-16T03:34:33;9.52;;;3.78;;
24407;SDS011;12542;50.924;4.516;2024-01-16T03:36:59;12.23;;;4.20;;
24407;SDS011;12542;50.924;4.516;2024-01-16T03:39:24;12.52;;;3.17;;
24407;SDS011;12542;50.924;4.516;2024-01-16T03:41:50;14.80;;;4.05;;
24407;SDS011;12542;50.924;4.516;2024-01-16T03:44:16;8.43;;;3.90;;
24407;SDS011;12542;50.924;4.516;2024-01-16T03:46:41;6.88;;;3.28;;
24407;SDS011;12542;50.924;4.516;2024-01-16T03:49:07;12.80;;;3.95;;
24407;SDS011;12542;50.924;4.516;2024-01-16T03:51:33;12.40;;;3.85;;
24407;SDS011;12542;50.924;4.516;2024-01-16T03:53:59;8.95;;;3.28;;
24407;SDS011;12542;50.924;4.516;2024-01-16T03:56:24;10.35;;;4.05;;
24407;SDS011;12542;50.924;4.516;2024-01-16T03:58:53;9.65;;;3.42;;
24407;SDS011;12542;50.924;4.516;2024-01-16T04:01:30;11.73;;;4.75;;
24407;SDS011;12542;50.924;4.516;2024-01-16T04:03:57;10.10;;;3.65;;
24407;SDS011;12542;50.924;4.516;2024-01-16T04:06:23;12.55;;;4.00;;
24407;SDS011;12542;50.924;4.516;2024-01-16T04:08:48;13.45;;;4.40;;
24407;SDS011;12542;50.924;4.516;2024-01-16T04:11:14;12.50;;;3.90;;
24407;SDS011;12542;50.924;4.516;2024-01-16T04:13:40;10.32;;;4.07;;
24407;SDS011;12542;50.924;4.516;2024-01-16T04:16:07;10.38;;;3.85;;
24407;SDS011;12542;50.924;4.516;2024-01-16T04:18:36;12.02;;;4.18;;
24407;SDS011;12542;50.924;4.516;2024-01-16T04:21:05;13.45;;;3.80;;
24407;SDS011;12542;50.924;4.516;2024-01-16T04:23:31;9.98;;;3.65;;
24407;SDS011;12542;50.924;4.516;2024-01-16T04:25:57;10.52;;;3.80;;
24407;SDS011;12542;50.924;4.516;2024-01-16T04:28:23;8.57;;;3.88;;
24407;SDS011;12542;50.924;4.516;2024-01-16T04:30:49;9.40;;;3.85;;
24407;SDS011;12542;50.924;4.516;2024-01-16T04:33:15;9.88;;;3.40;;
24407;SDS011;12542;50.924;4.516;2024-01-16T04:35:40;11.48;;;3.65;;
24407;SDS011;12542;50.924;4.516;2024-01-16T04:38:06;14.57;;;4.00;;
24407;SDS011;12542;50.924;4.516;2024-01-16T04:40:32;11.00;;;3.95;;
24407;SDS011;12542;50.924;4.516;2024-01-16T04:42:58;13.63;;;5.57;;
24407;SDS011;12542;50.924;4.516;2024-01-16T04:45:24;11.18;;;3.30;;
24407;SDS011;12542;50.924;4.516;2024-01-16T04:47:50;11.38;;;3.67;;
24407;SDS011;12542;50.924;4.516;2024-01-16T04:50:16;11.10;;;3.47;;
24407;SDS011;12542;50.924;4.516;2024-01-16T04:52:41;9.82;;;4.13;;
24407;SDS011;12542;50.924;4.516;2024-01-16T04:55:08;11.70;;;4.28;;
24407;SDS011;12542;50.924;4.516;2024-01-16T04:57:34;11.57;;;3.95;;
24407;SDS011;12542;50.924;4.516;2024-01-16T04:59:59;11.02;;;3.75;;
24407;SDS011;12542;50.924;4.516;2024-01-16T05:02:25;10.90;;;4.32;;
24407;SDS011;12542;50.924;4.516;2024-01-16T05:04:51;11.25;;;3.80;;
24407;SDS011;12542;50.924;4.516;2024-01-16T05:07:20;14.50;;;3.97;;
24407;SDS011;12542;50.924;4.516;2024-01-16T05:09:48;14.80;;;4.57;;
24407;SDS011;12542;50.924;4.516;2024-01-16T05:12:14;11.00;;;4.28;;
24407;SDS011;12542;50.924;4.516;2024-01-16T05:14:40;10.15;;;4.22;;
24407;SDS011;12542;50.924;4.516;2024-01-16T05:17:05;8.68;;;3.92;;
24407;SDS011;12542;50.924;4.516;2024-01-16T05:19:31;15.07;;;5.47;;
24407;SDS011;12542;50.924;4.516;2024-01-16T05:21:57;7.57;;;3.90;;
24407;SDS011;12542;50.924;4.516;2024-01-16T05:24:23;17.85;;;4.93;;
24407;SDS011;12542;50.924;4.516;2024-01-16T05:26:48;12.13;;;5.50;;
24407;SDS011;12542;50.924;4.516;2024-01-16T05:29:14;11.77;;;4.20;;
24407;SDS011;12542;50.924;4.516;2024-01-16T05:31:43;14.95;;;4.55;;
24407;SDS011;12542;50.924;4.516;2024-01-16T05:34:09;13.90;;;4.80;;
24407;SDS011;12542;50.924;4.516;2024-01-16T05:36:35;17.27;;;5.40;;
24407;SDS011;12542;50.924;4.516;2024-01-16T05:39:01;14.23;;;4.57;;
24407;SDS011;12542;50.924;4.516;2024-01-16T05:41:27;26.88;;;5.75;;
24407;SDS011;12542;50.924;4.516;2024-01-16T05:43:58;15.00;;;5.25;;
24407;SDS011;12542;50.924;4.516;2024-01-16T05:46:24;13.63;;;4.75;;
24407;SDS011;12542;50.924;4.516;2024-01-16T05:48:49;11.15;;;4.68;;
24407;SDS011;12542;50.924;4.516;2024-01-16T05:51:15;12.30;;;4.50;;
24407;SDS011;12542;50.924;4.516;2024-01-16T05:53:41;14.35;;;4.68;;
24407;SDS011;12542;50.924;4.516;2024-01-16T05:56:06;12.43;;;4.60;;
24407;SDS011;12542;50.924;4.516;2024-01-16T05:58:33;15.32;;;4.53;;
24407;SDS011;12542;50.924;4.516;2024-01-16T06:01:03;14.95;;;4.18;;
24407;SDS011;12542;50.924;4.516;2024-01-16T06:03:30;16.33;;;4.35;;
24407;SDS011;12542;50.924;4.516;2024-01-16T06:05:56;12.15;;;4.65;;
24407;SDS011;12542;50.924;4.516;2024-01-16T06:08:21;14.88;;;4.45;;
24407;SDS011;12542;50.924;4.516;2024-01-16T06:10:47;12.60;;;4.85;;
24407;SDS011;12542;50.924;4.516;2024-01-16T06:13:13;13.80;;;4.60;;
24407;SDS011;12542;50.924;4.516;2024-01-16T06:15:38;14.50;;;4.57;;
24407;SDS011;12542;50.924;4.516;2024-01-16T06:18:04;10.98;;;5.00;;
24407;SDS011;12542;50.924;4.516;2024-01-16T06:20:30;11.60;;;4.00;;
24407;SDS011;12542;50.924;4.516;2024-01-16T06:22:57;14.32;;;4.03;;
24407;SDS011;12542;50.924;4.516;2024-01-16T06:25:23;13.40;;;4.63;;
24407;SDS011;12542;50.924;4.516;2024-01-16T06:27:48;14.50;;;4.72;;
24407;SDS011;12542;50.924;4.516;2024-01-16T06:30:14;13.52;;;4.85;;
24407;SDS011;12542;50.924;4.516;2024-01-16T06:32:40;12.57;;;4.20;;
24407;SDS011;12542;50.924;4.516;2024-01-16T06:35:05;10.23;;;4.50;;
24407;SDS011;12542;50.924;4.516;2024-01-16T06:37:32;9.15;;;4.20;;
24407;SDS011;12542;50.924;4.516;2024-01-16T06:39:58;13.52;;;4.72;;
24407;SDS011;12542;50.924;4.516;2024-01-16T06:42:24;10.35;;;4.65;;
24407;SDS011;12542;50.924;4.516;2024-01-16T06:44:50;10.93;;;4.90;;
24407;SDS011;12542;50.924;4.516;2024-01-16T06:47:15;11.77;;;3.80;;
24407;SDS011;12542;50.924;4.516;2024-01-16T06:49:41;12.50;;;4.22;;
24407;SDS011;12542;50.924;4.516;2024-01-16T06:52:07;8.30;;;3.92;;
24407;SDS011;12542;50.924;4.516;2024-01-16T06:54:34;18.05;;;4.78;;
24407;SDS011;12542;50.924;4.516;2024-01-16T06:57:00;15.90;;;4.63;;
24407;SDS011;12542;50.924;4.516;2024-01-16T06:59:26;12.77;;;4.68;;
24407;SDS011;12542;50.924;4.516;2024-01-16T07:01:51;15.57;;;5.20;;
24407;SDS011;12542;50.924;4.516;2024-01-16T07:04:19;13.25;;;5.28;;
24407;SDS011;12542;50.924;4.516;2024-01-16T07:06:47;11.63;;;5.32;;
24407;SDS011;12542;50.924;4.516;2024-01-16T07:09:13;11.65;;;5.03;;
24407;SDS011;12542;50.924;4.516;2024-01-16T07:11:41;11.88;;;4.68;;
24407;SDS011;12542;50.924;4.516;2024-01-16T07:14:08;14.05;;;4.63;;
24407;SDS011;12542;50.924;4.516;2024-01-16T07:16:35;13.15;;;4.80;;
24407;SDS011;12542;50.924;4.516;2024-01-16T07:19:01;15.93;;;4.50;;
24407;SDS011;12542;50.924;4.516;2024-01-16T07:21:27;13.68;;;4.70;;
24407;SDS011;12542;50.924;4.516;2024-01-16T07:23:53;11.35;;;4.60;;
24407;SDS011;12542;50.924;4.516;2024-01-16T07:26:19;13.23;;;4.80;;
24407;SDS011;12542;50.924;4.516;2024-01-16T07:28:45;12.60;;;4.80;;
24407;SDS011;12542;50.924;4.516;2024-01-16T07:31:13;14.27;;;4.53;;
24407;SDS011;12542;50.924;4.516;2024-01-16T07:33:39;10.50;;;4.55;;
24407;SDS011;12542;50.924;4.516;2024-01-16T07:36:05;9.45;;;4.97;;
24407;SDS011;12542;50.924;4.516;2024-01-16T07:38:31;15.68;;;4.57;;
24407;SDS011;12542;50.924;4.516;2024-01-16T07:40:57;15.57;;;5.28;;
24407;SDS011;12542;50.924;4.516;2024-01-16T07:43:23;20.60;;;5.13;;
24407;SDS011;12542;50.924;4.516;2024-01-16T07:45:49;25.40;;;5.43;;
24407;SDS011;12542;50.924;4.516;2024-01-16T07:48:15;10.88;;;4.28;;
24407;SDS011;12542;50.924;4.516;2024-01-16T07:50:40;9.75;;;4.15;;
24407;SDS011;12542;50.924;4.516;2024-01-16T07:53:06;15.63;;;4.50;;
24407;SDS011;12542;50.924;4.516;2024-01-16T07:55:32;9.90;;;4.28;;
24407;SDS011;12542;50.924;4.516;2024-01-16T07:57:57;11.98;;;4.80;;
24407;SDS011;12542;50.924;4.516;2024-01-16T08:00:23;18.65;;;6.70;;
24407;SDS011;12542;50.924;4.516;2024-01-16T08:02:49;11.65;;;4.60;;
24407;SDS011;12542;50.924;4.516;2024-01-16T08:05:15;14.60;;;4.45;;
24407;SDS011;12542;50.924;4.516;2024-01-16T08:07:43;11.32;;;4.38;;
24407;SDS011;12542;50.924;4.516;2024-01-16T08:10:09;10.52;;;4.72;;
24407;SDS011;12542;50.924;4.516;2024-01-16T08:12:35;13.80;;;4.70;;
24407;SDS011;12542;50.924;4.516;2024-01-16T08:15:03;14.25;;;4.88;;
24407;SDS011;12542;50.924;4.516;2024-01-16T08:17:30;16.38;;;5.10;;
24407;SDS011;12542;50.924;4.516;2024-01-16T08:19:57;15.57;;;4.63;;
24407;SDS011;12542;50.924;4.516;2024-01-16T08:22:23;15.57;;;4.57;;
24407;SDS011;12542;50.924;4.516;2024-01-16T08:24:49;11.77;;;5.55;;
24407;SDS011;12542;50.924;4.516;2024-01-16T08:27:15;15.38;;;4.47;;
24407;SDS011;12542;50.924;4.516;2024-01-16T08:29:42;10.40;;;3.97;;
24407;SDS011;12542;50.924;4.516;2024-01-16T08:32:07;15.52;;;4.90;;
24407;SDS011;12542;50.924;4.516;2024-01-16T08:34:33;12.98;;;4.13;;
24407;SDS011;12542;50.924;4.516;2024-01-16T08:36:59;12.30;;;4.22;;
24407;SDS011;12542;50.924;4.516;2024-01-16T08:39:25;9.25;;;3.85;;
24407;SDS011;12542;50.924;4.516;2024-01-16T08:41:52;10.80;;;4.72;;
24407;SDS011;12542;50.924;4.516;2024-01-16T08:44:22;13.48;;;4.18;;
24407;SDS011;12542;50.924;4.516;2024-01-16T08:46:47;9.75;;;4.35;;
24407;SDS011;12542;50.924;4.516;2024-01-16T08:49:14;12.20;;;4.57;;
24407;SDS011;12542;50.924;4.516;2024-01-16T08:51:40;12.10;;;4.45;;
24407;SDS011;12542;50.924;4.516;2024-01-16T08:54:06;8.30;;;3.83;;
24407;SDS011;12542;50.924;4.516;2024-01-16T08:56:32;10.45;;;4.22;;
24407;SDS011;12542;50.924;4.516;2024-01-16T08:58:58;19.00;;;4.03;;
24407;SDS011;12542;50.924;4.516;2024-01-16T09:01:23;10.18;;;4.05;;
24407;SDS011;12542;50.924;4.516;2024-01-16T09:03:49;12.93;;;3.30;;
24407;SDS011;12542;50.924;4.516;2024-01-16T09:06:15;13.02;;;4.00;;
24407;SDS011;12542;50.924;4.516;2024-01-16T09:08:40;11.68;;;3.53;;
24407;SDS011;12542;50.924;4.516;2024-01-16T09:11:06;9.13;;;3.60;;
24407;SDS011;12542;50.924;4.516;2024-01-16T09:13:32;11.95;;;3.80;;
24407;SDS011;12542;50.924;4.516;2024-01-16T09:15:58;11.52;;;4.80;;
24407;SDS011;12542;50.924;4.516;2024-01-16T09:18:26;10.95;;;3.70;;
24407;SDS011;12542;50.924;4.516;2024-01-16T09:20:52;14.20;;;4.30;;
24407;SDS011;12542;50.924;4.516;2024-01-16T09:23:18;14.35;;;4.28;;
24407;SDS011;12542;50.924;4.516;2024-01-16T09:25:43;9.75;;;4.18;;
24407;SDS011;12542;50.924;4.516;2024-01-16T09:28:11;12.95;;;4.07;;
24407;SDS011;12542;50.924;4.516;2024-01-16T09:30:37;8.52;;;3.50;;
24407;SDS011;12542;50.924;4.516;2024-01-16T09:33:03;13.52;;;3.80;;
24407;SDS011;12542;50.924;4.516;2024-01-16T09:35:31;10.80;;;4.22;;
24407;SDS011;12542;50.924;4.516;2024-01-16T09:37:57;13.02;;;3.80;;
24407;SDS011;12542;50.924;4.516;2024-01-16T09:40:24;8.20;;;3.38;;
24407;SDS011;12542;50.924;4.516;2024-01-16T09:42:51;7.68;;;3.47;;
24407;SDS011;12542;50.924;4.516;2024-01-16T09:45:19;8.43;;;3.08;;
24407;SDS011;12542;50.924;4.516;2024-01-16T09:47:49;12.05;;;3.25;;
24407;SDS011;12542;50.924;4.516;2024-01-16T09:50:17;7.93;;;3.35;;
24407;SDS011;12542;50.924;4.516;2024-01-16T09:52:46;10.73;;;3.10;;
24407;SDS011;12542;50.924;4.516;2024-01-16T09:55:12;12.85;;;4.10;;
24407;SDS011;12542;50.924;4.516;2024-01-16T09:57:39;10.98;;;3.42;;
24407;SDS011;12542;50.924;4.516;2024-01-16T10:00:09;15.07;;;4.50;;
24407;SDS011;12542;50.924;4.516;2024-01-16T10:02:40;13.13;;;4.07;;
24407;SDS011;12542;50.924;4.516;2024-01-16T10:05:10;17.15;;;3.80;;
24407;SDS011;12542;50.924;4.516;2024-01-16T10:07:40;8.75;;;3.20;;
24407;SDS011;12542;50.924;4.516;2024-01-16T10:10:10;10.68;;;3.08;;
24407;SDS011;12542;50.924;4.516;2024-01-16T10:12:36;13.90;;;3.92;;
24407;SDS011;12542;50.924;4.516;2024-01-16T10:15:05;9.05;;;3.83;;
24407;SDS011;12542;50.924;4.516;2024-01-16T10:17:36;8.98;;;3.70;;
24407;SDS011;12542;50.924;4.516;2024-01-16T10:20:08;15.50;;;3.50;;
24407;SDS011;12542;50.924;4.516;2024-01-16T10:22:38;13.27;;;3.38;;
24407;SDS011;12542;50.924;4.516;2024-01-16T10:27:31;11.27;;;3.45;;
24407;SDS011;12542;50.924;4.516;2024-01-16T10:29:57;8.75;;;2.90;;
24407;SDS011;12542;50.924;4.516;2024-01-16T10:32:36;8.70;;;3.63;;
24407;SDS011;12542;50.924;4.516;2024-01-16T10:35:10;9.48;;;3.45;;
24407;SDS011;12542;50.924;4.516;2024-01-16T10:37:55;8.73;;;2.75;;
24407;SDS011;12542;50.924;4.516;2024-01-16T10:40:22;8.23;;;3.20;;
24407;SDS011;12542;50.924;4.516;2024-01-16T10:43:24;7.45;;;2.95;;
24407;SDS011;12542;50.924;4.516;2024-01-16T10:45:43;9.07;;;3.10;;
24407;SDS011;12542;50.924;4.516;2024-01-16T10:48:09;6.95;;;3.00;;
24407;SDS011;12542;50.924;4.516;2024-01-16T10:50:35;9.77;;;3.10;;
24407;SDS011;12542;50.924;4.516;2024-01-16T10:53:06;11.65;;;3.33;;
24407;SDS011;12542;50.924;4.516;2024-01-16T10:55:42;10.65;;;2.97;;
24407;SDS011;12542;50.924;4.516;2024-01-16T10:58:16;10.40;;;3.45;;
24407;SDS011;12542;50.924;4.516;2024-01-16T11:00:45;8.38;;;3.08;;
24407;SDS011;12542;50.924;4.516;2024-01-16T11:03:20;7.68;;;2.80;;
24407;SDS011;12542;50.924;4.516;2024-01-16T11:05:54;12.25;;;3.38;;
24407;SDS011;12542;50.924;4.516;2024-01-16T11:08:22;10.98;;;3.17;;
24407;SDS011;12542;50.924;4.516;2024-01-16T11:10:54;12.82;;;3.75;;
24407;SDS011;12542;50.924;4.516;2024-01-16T11:13:20;8.15;;;3.33;;
24407;SDS011;12542;50.924;4.516;2024-01-16T11:15:47;11.57;;;3.13;;
24407;SDS011;12542;50.924;4.516;2024-01-16T11:18:14;8.80;;;2.92;;
24407;SDS011;12542;50.924;4.516;2024-01-16T11:20:42;9.90;;;3.20;;
24407;SDS011;12542;50.924;4.516;2024-01-16T11:23:10;11.82;;;3.33;;
24407;SDS011;12542;50.924;4.516;2024-01-16T11:25:37;11.27;;;3.25;;
24407;SDS011;12542;50.924;4.516;2024-01-16T11:28:09;6.10;;;3.17;;
24407;SDS011;12542;50.924;4.516;2024-01-16T11:30:36;7.73;;;2.47;;
24407;SDS011;12542;50.924;4.516;2024-01-16T11:33:02;9.13;;;2.90;;
24407;SDS011;12542;50.924;4.516;2024-01-16T11:35:33;8.52;;;2.50;;
24407;SDS011;12542;50.924;4.516;2024-01-16T11:38:03;8.82;;;2.90;;
24407;SDS011;12542;50.924;4.516;2024-01-16T11:40:33;7.80;;;2.85;;
24407;SDS011;12542;50.924;4.516;2024-01-16T11:43:00;12.07;;;3.03;;
24407;SDS011;12542;50.924;4.516;2024-01-16T11:45:57;7.47;;;2.72;;
24407;SDS011;12542;50.924;4.516;2024-01-16T11:48:27;7.38;;;2.72;;
24407;SDS011;12542;50.924;4.516;2024-01-16T11:50:53;8.15;;;3.22;;
24407;SDS011;12542;50.924;4.516;2024-01-16T11:56:15;13.35;;;2.90;;
24407;SDS011;12542;50.924;4.516;2024-01-16T12:02:01;7.57;;;2.80;;
24407;SDS011;12542;50.924;4.516;2024-01-16T12:04:30;7.78;;;2.97;;
24407;SDS011;12542;50.924;4.516;2024-01-16T12:06:59;6.50;;;2.67;;
24407;SDS011;12542;50.924;4.516;2024-01-16T12:09:25;10.82;;;2.83;;
24407;SDS011;12542;50.924;4.516;2024-01-16T12:11:59;19.77;;;3.33;;
24407;SDS011;12542;50.924;4.516;2024-01-16T12:14:29;12.73;;;3.53;;
24407;SDS011;12542;50.924;4.516;2024-01-16T12:17:13;7.53;;;2.90;;
24407;SDS011;12542;50.924;4.516;2024-01-16T12:19:40;7.75;;;3.17;;
24407;SDS011;12542;50.924;4.516;2024-01-16T12:22:10;6.47;;;2.80;;
24407;SDS011;12542;50.924;4.516;2024-01-16T12:24:38;15.50;;;4.57;;
24407;SDS011;12542;50.924;4.516;2024-01-16T12:27:05;11.00;;;3.03;;
24407;SDS011;12542;50.924;4.516;2024-01-16T12:29:31;10.30;;;3.35;;
24407;SDS011;12542;50.924;4.516;2024-01-16T12:32:10;11.00;;;2.90;;
24407;SDS011;12542;50.924;4.516;2024-01-16T12:34:43;11.32;;;4.05;;
24407;SDS011;12542;50.924;4.516;2024-01-16T12:37:11;8.97;;;4.03;;
24407;SDS011;12542;50.924;4.516;2024-01-16T12:39:37;8.88;;;2.60;;
24407;SDS011;12542;50.924;4.516;2024-01-16T12:42:04;8.73;;;2.70;;
24407;SDS011;12542;50.924;4.516;2024-01-16T12:44:30;7.85;;;3.08;;
24407;SDS011;12542;50.924;4.516;2024-01-16T12:46:56;9.82;;;3.40;;
24407;SDS011;12542;50.924;4.516;2024-01-16T12:49:22;14.27;;;4.03;;
24407;SDS011;12542;50.924;4.516;2024-01-16T12:51:49;10.93;;;2.72;;
24407;SDS011;12542;50.924;4.516;2024-01-16T12:54:17;12.43;;;4.75;;
24407;SDS011;12542;50.924;4.516;2024-01-16T12:56:47;13.20;;;3.10;;
24407;SDS011;12542;50.924;4.516;2024-01-16T12:59:13;10.60;;;3.40;;
24407;SDS011;12542;50.924;4.516;2024-01-16T13:01:40;8.18;;;3.13;;
24407;SDS011;12542;50.924;4.516;2024-01-16T13:04:11;10.20;;;3.58;;
24407;SDS011;12542;50.924;4.516;2024-01-16T13:06:38;11.52;;;3.33;;
24407;SDS011;12542;50.924;4.516;2024-01-16T13:09:11;10.90;;;3.15;;
24407;SDS011;12542;50.924;4.516;2024-01-16T13:11:53;12.18;;;2.70;;
24407;SDS011;12542;50.924;4.516;2024-01-16T13:14:20;8.25;;;3.10;;
24407;SDS011;12542;50.924;4.516;2024-01-16T13:16:47;10.48;;;3.13;;
24407;SDS011;12542;50.924;4.516;2024-01-16T13:19:17;10.63;;;3.10;;
24407;SDS011;12542;50.924;4.516;2024-01-16T13:21:46;8.77;;;3.00;;
24407;SDS011;12542;50.924;4.516;2024-01-16T13:24:12;7.55;;;2.90;;
24407;SDS011;12542;50.924;4.516;2024-01-16T13:26:38;12.57;;;3.55;;
24407;SDS011;12542;50.924;4.516;2024-01-16T13:29:05;7.85;;;3.20;;
24407;SDS011;12542;50.924;4.516;2024-01-16T13:31:34;10.20;;;2.97;;
24407;SDS011;12542;50.924;4.516;2024-01-16T13:33:59;13.15;;;3.50;;
24407;SDS011;12542;50.924;4.516;2024-01-16T13:36:25;7.50;;;3.13;;
24407;SDS011;12542;50.924;4.516;2024-01-16T13:38:51;16.50;;;3.50;;
24407;SDS011;12542;50.924;4.516;2024-01-16T13:41:17;10.88;;;3.20;;
24407;SDS011;12542;50.924;4.516;2024-01-16T13:43:42;8.73;;;2.63;;
24407;SDS011;12542;50.924;4.516;2024-01-16T13:46:08;6.90;;;2.15;;
24407;SDS011;12542;50.924;4.516;2024-01-16T13:48:35;7.65;;;2.28;;
24407;SDS011;12542;50.924;4.516;2024-01-16T13:51:01;8.15;;;3.13;;
24407;SDS011;12542;50.924;4.516;2024-01-16T13:53:29;10.27;;;2.75;;
24407;SDS011;12542;50.924;4.516;2024-01-16T13:55:55;11.18;;;3.13;;
24407;SDS011;12542;50.924;4.516;2024-01-16T13:58:21;11.82;;;2.70;;
24407;SDS011;12542;50.924;4.516;2024-01-16T14:00:46;10.48;;;2.90;;
24407;SDS011;12542;50.924;4.516;2024-01-16T14:03:12;14.95;;;2.95;;
24407;SDS011;12542;50.924;4.516;2024-01-16T14:05:37;7.75;;;2.38;;
24407;SDS011;12542;50.924;4.516;2024-01-16T14:08:07;9.77;;;2.97;;
24407;SDS011;12542;50.924;4.516;2024-01-16T14:10:33;7.70;;;2.63;;
24407;SDS011;12542;50.924;4.516;2024-01-16T14:12:59;5.82;;;2.33;;
24407;SDS011;12542;50.924;4.516;2024-01-16T14:15:24;6.95;;;2.47;;
24407;SDS011;12542;50.924;4.516;2024-01-16T14:17:51;8.48;;;2.70;;
24407;SDS011;12542;50.924;4.516;2024-01-16T14:20:18;6.90;;;2.92;;
24407;SDS011;12542;50.924;4.516;2024-01-16T14:22:48;10.05;;;3.15;;
24407;SDS011;12542;50.924;4.516;2024-01-16T14:25:18;9.05;;;3.50;;
24407;SDS011;12542;50.924;4.516;2024-01-16T14:27:50;14.60;;;3.53;;
24407;SDS011;12542;50.924;4.516;2024-01-16T14:30:23;12.05;;;3.78;;
24407;SDS011;12542;50.924;4.516;2024-01-16T14:32:50;13.57;;;3.20;;
24407;SDS011;12542;50.924;4.516;2024-01-16T14:35:17;13.10;;;3.78;;
24407;SDS011;12542;50.924;4.516;2024-01-16T14:37:45;9.82;;;2.97;;
24407;SDS011;12542;50.924;4.516;2024-01-16T14:40:11;9.73;;;2.70;;
24407;SDS011;12542;50.924;4.516;2024-01-16T14:42:40;8.02;;;2.55;;
24407;SDS011;12542;50.924;4.516;2024-01-16T14:45:12;9.18;;;2.97;;
24407;SDS011;12542;50.924;4.516;2024-01-16T14:47:41;8.30;;;2.47;;
24407;SDS011;12542;50.924;4.516;2024-01-16T14:50:07;9.80;;;2.47;;
24407;SDS011;12542;50.924;4.516;2024-01-16T14:52:35;6.32;;;2.10;;
24407;SDS011;12542;50.924;4.516;2024-01-16T14:55:01;11.00;;;2.78;;
24407;SDS011;12542;50.924;4.516;2024-01-16T14:57:28;7.65;;;2.40;;